Time;durP1;ratioP1;P1;durP2;ratioP2;P2;SDS_P1;SDS_P2;PMS_P1;PMS_P2;Temp;Humidity;BMP_temperature;BMP_pressure;BME280_temperature;BME280_humidity;BME280_pressure;Samples;Min_cycle;Max_cycle;Signal;HPM_P1;HPM_P2
2023/05/27 00:00:55;;;;;;;2.92;1.67;;;;;;;;;;6210079;28;20308;-80
2023/05/27 00:04:02;;;;;;;6.57;1.70;;;;;;;;;;6209528;28;20293;-77
2023/05/27 00:07:08;;;;;;;4.47;1.52;;;;;;;;;;6210552;28;20289;-81
2023/05/27 00:10:14;;;;;;;7.32;1.60;;;;;;;;;;6209801;28;20293;-79
2023/05/27 00:13:19;;;;;;;10.20;2.15;;;;;;;;;;6211647;28;20292;-79
2023/05/27 00:16:24;;;;;;;10.20;1.63;;;;;;;;;;6234613;28;20600;-77
2023/05/27 00:19:32;;;;;;;11.05;1.92;;;;;;;;;;6232835;28;20576;-78
2023/05/27 00:22:37;;;;;;;7.32;2.00;;;;;;;;;;6208927;28;20277;-80
2023/05/27 00:25:42;;;;;;;4.43;1.88;;;;;;;;;;6232624;28;20300;-79
2023/05/27 00:28:48;;;;;;;5.28;1.75;;;;;;;;;;6217474;28;20288;-79
2023/05/27 00:31:53;;;;;;;1.25;1.25;;;;;;;;;;6213771;28;20293;-78
2023/05/27 00:35:00;;;;;;;5.75;1.33;;;;;;;;;;6225561;28;20297;-80
2023/05/27 00:38:06;;;;;;;7.00;1.70;;;;;;;;;;6213402;28;20588;-78
2023/05/27 00:41:13;;;;;;;13.38;1.65;;;;;;;;;;6231608;28;20289;-79
2023/05/27 00:44:18;;;;;;;13.85;1.40;;;;;;;;;;6216809;28;20312;-79
2023/05/27 00:47:23;;;;;;;3.70;1.52;;;;;;;;;;6214523;28;20321;-79
2023/05/27 00:50:30;;;;;;;2.47;1.30;;;;;;;;;;6212834;28;20305;-80
2023/05/27 00:53:40;;;;;;;7.38;1.48;;;;;;;;;;6215759;28;20325;-79
2023/05/27 00:56:45;;;;;;;10.05;1.90;;;;;;;;;;6214170;28;20296;-78
2023/05/27 00:59:51;;;;;;;3.83;1.83;;;;;;;;;;6214106;28;20304;-78
2023/05/27 01:02:57;;;;;;;7.20;1.70;;;;;;;;;;6227281;22;20354;-70
2023/05/27 01:06:09;;;;;;;5.90;1.38;;;;;;;;;;6212544;28;20317;-69
2023/05/27 01:09:21;;;;;;;6.78;1.58;;;;;;;;;;6212227;28;20618;-69
2023/05/27 01:12:33;;;;;;;8.75;1.45;;;;;;;;;;6205017;28;20297;-69
2023/05/27 01:15:38;;;;;;;8.25;2.03;;;;;;;;;;6189268;28;20298;-70
2023/05/27 01:18:46;;;;;;;6.05;1.50;;;;;;;;;;6187874;28;20298;-70
2023/05/27 01:21:54;;;;;;;3.45;1.60;;;;;;;;;;6204409;28;20296;-68
2023/05/27 01:25:02;;;;;;;15.23;1.85;;;;;;;;;;6211641;28;20301;-69
2023/05/27 01:28:07;;;;;;;12.00;3.45;;;;;;;;;;6211942;28;20293;-70
2023/05/27 01:31:16;;;;;;;10.73;1.90;;;;;;;;;;6212204;28;20586;-70
2023/05/27 01:34:27;;;;;;;9.00;2.13;;;;;;;;;;6213101;28;20297;-71
2023/05/27 01:37:37;;;;;;;9.77;1.70;;;;;;;;;;6211099;28;20324;-69
2023/05/27 01:40:43;;;;;;;8.02;1.95;;;;;;;;;;6213224;28;20297;-69
2023/05/27 01:43:50;;;;;;;6.35;1.65;;;;;;;;;;6211904;28;20297;-69
2023/05/27 01:47:00;;;;;;;13.20;1.55;;;;;;;;;;6212908;28;20304;-70
2023/05/27 01:50:07;;;;;;;6.43;2.00;;;;;;;;;;6212442;28;20321;-70
2023/05/27 01:53:13;;;;;;;6.10;2.25;;;;;;;;;;6212509;28;20301;-69
2023/05/27 01:56:19;;;;;;;6.68;1.42;;;;;;;;;;6211629;28;20385;-69
2023/05/27 01:59:26;;;;;;;3.88;1.83;;;;;;;;;;6211212;28;20430;-70
2023/05/27 02:02:31;;;;;;;5.40;1.50;;;;;;;;;;6211763;28;20292;-69
2023/05/27 02:05:36;;;;;;;4.00;1.50;;;;;;;;;;6210739;28;20293;-69
2023/05/27 02:08:42;;;;;;;6.38;1.38;;;;;;;;;;6211282;28;20300;-70
2023/05/27 02:11:48;;;;;;;5.22;1.60;;;;;;;;;;6210954;28;20305;-71
2023/05/27 02:14:54;;;;;;;1.85;1.25;;;;;;;;;;6210877;28;20293;-71
2023/05/27 02:17:59;;;;;;;4.68;1.95;;;;;;;;;;6212584;28;20438;-70
2023/05/27 02:21:06;;;;;;;2.67;1.38;;;;;;;;;;6210109;28;20316;-70
2023/05/27 02:24:13;;;;;;;4.97;1.60;;;;;;;;;;6212079;28;20297;-69
2023/05/27 02:27:20;;;;;;;1.38;1.23;;;;;;;;;;6210737;28;20300;-69
2023/05/27 02:30:27;;;;;;;1.90;1.40;;;;;;;;;;6210454;28;20301;-69
2023/05/27 02:33:32;;;;;;;1.55;1.30;;;;;;;;;;6211221;28;20289;-69
2023/05/27 02:36:38;;;;;;;4.78;1.50;;;;;;;;;;6211036;28;20406;-70
2023/05/27 02:39:44;;;;;;;4.88;1.55;;;;;;;;;;6210039;28;20293;-70
2023/05/27 02:42:50;;;;;;;1.98;1.20;;;;;;;;;;6210635;28;20293;-69
2023/05/27 02:45:55;;;;;;;1.30;1.20;;;;;;;;;;6210184;28;20474;-70
2023/05/27 02:49:00;;;;;;;1.30;1.30;;;;;;;;;;6210786;28;20348;-69
2023/05/27 02:52:06;;;;;;;1.58;1.58;;;;;;;;;;6210514;28;20297;-69
2023/05/27 02:55:13;;;;;;;2.15;1.58;;;;;;;;;;6209535;28;20324;-70
2023/05/27 02:58:20;;;;;;;3.58;1.20;;;;;;;;;;6209899;28;20309;-68
2023/05/27 03:01:25;;;;;;;1.80;1.10;;;;;;;;;;6198699;28;20294;-72
2023/05/27 03:04:31;;;;;;;2.58;1.25;;;;;;;;;;6209566;28;20550;-69
2023/05/27 03:07:36;;;;;;;4.57;1.52;;;;;;;;;;6210872;28;20424;-69
2023/05/27 03:10:41;;;;;;;1.75;1.48;;;;;;;;;;6209179;28;20292;-71
2023/05/27 03:13:48;;;;;;;1.77;1.13;;;;;;;;;;6208771;28;20309;-70
2023/05/27 03:16:54;;;;;;;3.25;1.30;;;;;;;;;;6209758;28;20301;-71
2023/05/27 03:19:59;;;;;;;4.38;1.35;;;;;;;;;;6210381;28;20589;-70
2023/05/27 03:23:05;;;;;;;3.40;1.65;;;;;;;;;;6208703;28;20292;-71
2023/05/27 03:26:11;;;;;;;2.65;1.67;;;;;;;;;;6209687;28;20589;-69
2023/05/27 03:29:18;;;;;;;1.38;1.27;;;;;;;;;;6209094;28;20321;-69
2023/05/27 03:32:25;;;;;;;2.58;1.60;;;;;;;;;;6208942;28;20305;-69
2023/05/27 03:35:30;;;;;;;1.65;1.20;;;;;;;;;;6209730;28;20337;-68
2023/05/27 03:38:35;;;;;;;2.95;1.17;;;;;;;;;;6208506;28;20292;-70
2023/05/27 03:41:41;;;;;;;3.47;1.30;;;;;;;;;;6209110;28;20292;-70
2023/05/27 03:44:51;;;;;;;1.20;1.20;;;;;;;;;;6208531;28;20485;-69
2023/05/27 03:47:56;;;;;;;1.08;1.08;;;;;;;;;;6208644;28;20577;-69
2023/05/27 03:51:01;;;;;;;2.15;1.40;;;;;;;;;;6208545;28;20405;-69
2023/05/27 03:54:07;;;;;;;1.00;1.00;;;;;;;;;;6208298;28;20296;-69
2023/05/27 03:57:13;;;;;;;1.15;1.15;;;;;;;;;;6209200;28;20301;-70
2023/05/27 04:00:20;;;;;;;1.13;1.13;;;;;;;;;;6208492;28;20302;-69
2023/05/27 04:03:29;;;;;;;1.45;1.10;;;;;;;;;;6207735;28;20301;-69
2023/05/27 04:06:34;;;;;;;1.38;0.95;;;;;;;;;;6208806;28;20317;-70
2023/05/27 04:09:39;;;;;;;1.08;1.08;;;;;;;;;;6208064;28;20292;-69
2023/05/27 04:12:45;;;;;;;1.95;1.13;;;;;;;;;;6210211;28;20293;-69
2023/05/27 04:15:53;;;;;;;4.25;1.20;;;;;;;;;;6209475;28;20308;-69
2023/05/27 04:18:58;;;;;;;2.13;1.10;;;;;;;;;;6209342;28;20296;-70
2023/05/27 04:22:04;;;;;;;3.08;1.20;;;;;;;;;;6210062;28;20296;-70
2023/05/27 04:25:12;;;;;;;1.05;1.00;;;;;;;;;;6208127;28;20289;-70
2023/05/27 04:28:45;;;;;;;1.30;1.30;;;;;;;;;;6207282;28;20596;-69
2023/05/27 04:31:52;;;;;;;2.60;1.20;;;;;;;;;;6208463;28;20316;-69
2023/05/27 04:34:58;;;;;;;0.93;0.93;;;;;;;;;;6208791;28;20371;-71
2023/05/27 04:38:04;;;;;;;1.10;1.10;;;;;;;;;;6208582;28;20392;-70
2023/05/27 04:41:21;;;;;;;0.82;0.82;;;;;;;;;;6207406;28;20289;-69
2023/05/27 04:44:28;;;;;;;1.10;1.10;;;;;;;;;;6209269;28;20382;-69
2023/05/27 04:47:37;;;;;;;5.10;1.00;;;;;;;;;;6208733;28;20344;-69
2023/05/27 04:50:43;;;;;;;2.67;0.93;;;;;;;;;;6208147;28;20324;-70
2023/05/27 04:53:49;;;;;;;1.52;1.10;;;;;;;;;;6208075;28;20307;-70
2023/05/27 04:56:57;;;;;;;1.00;1.00;;;;;;;;;;6208057;28;20383;-72
2023/05/27 05:00:23;;;;;;;1.08;1.08;;;;;;;;;;6207875;28;20301;-70
2023/05/27 05:03:39;;;;;;;0.98;0.98;;;;;;;;;;6207245;28;20617;-69
2023/05/27 05:06:46;;;;;;;1.17;1.10;;;;;;;;;;6208727;28;20373;-70
2023/05/27 05:09:52;;;;;;;1.10;1.10;;;;;;;;;;6208324;28;20300;-69
2023/05/27 05:13:06;;;;;;;1.13;1.13;;;;;;;;;;6212486;28;20300;-68
2023/05/27 05:16:12;;;;;;;1.23;1.00;;;;;;;;;;6214268;28;20289;-68
2023/05/27 05:19:19;;;;;;;2.53;1.10;;;;;;;;;;6213727;28;20626;-69
2023/05/27 05:22:26;;;;;;;1.23;1.13;;;;;;;;;;6212287;28;20301;-70
2023/05/27 05:25:35;;;;;;;1.00;1.00;;;;;;;;;;6211362;28;20292;-70
2023/05/27 05:28:40;;;;;;;3.60;1.05;;;;;;;;;;6212047;28;20297;-70
2023/05/27 05:31:47;;;;;;;1.08;1.08;;;;;;;;;;6212348;28;20285;-70
2023/05/27 05:34:57;;;;;;;1.00;1.00;;;;;;;;;;6211944;28;20289;-72
2023/05/27 05:38:03;;;;;;;1.33;1.20;;;;;;;;;;6213942;28;20292;-69
2023/05/27 05:41:09;;;;;;;1.33;0.98;;;;;;;;;;6211492;28;20317;-70
2023/05/27 05:44:17;;;;;;;1.15;1.15;;;;;;;;;;6212998;28;20297;-70
2023/05/27 05:47:22;;;;;;;1.10;1.10;;;;;;;;;;6211966;28;20297;-70
2023/05/27 05:50:38;;;;;;;1.30;1.20;;;;;;;;;;6212924;28;20305;-69
2023/05/27 05:53:44;;;;;;;2.38;1.00;;;;;;;;;;6211391;28;20313;-70
2023/05/27 05:56:49;;;;;;;1.35;0.90;;;;;;;;;;6211902;28;20293;-70
2023/05/27 05:59:55;;;;;;;0.88;0.70;;;;;;;;;;6211358;28;20301;-69
2023/05/27 06:03:00;;;;;;;0.90;0.90;;;;;;;;;;6211423;28;20297;-70
2023/05/27 06:06:28;;;;;;;0.98;0.98;;;;;;;;;;6210802;28;20297;-69
2023/05/27 06:09:45;;;;;;;1.40;0.65;;;;;;;;;;6211075;28;20309;-69
2023/05/27 06:12:57;;;;;;;1.27;1.13;;;;;;;;;;6211528;28;20301;-72
2023/05/27 06:16:02;;;;;;;1.05;0.90;;;;;;;;;;6211432;28;20300;-71
2023/05/27 06:19:11;;;;;;;6.55;1.10;;;;;;;;;;6211328;28;20301;-70
2023/05/27 06:22:18;;;;;;;1.23;1.15;;;;;;;;;;6210491;28;20418;-69
2023/05/27 06:25:52;;;;;;;0.98;0.70;;;;;;;;;;6209966;28;20570;-68
2023/05/27 06:28:58;;;;;;;3.83;1.10;;;;;;;;;;6210951;28;20308;-71
2023/05/27 06:32:07;;;;;;;1.33;1.00;;;;;;;;;;6211116;28;20296;-70
2023/05/27 06:35:12;;;;;;;11.70;1.20;;;;;;;;;;6210660;28;20480;-69
2023/05/27 06:38:19;;;;;;;1.02;1.02;;;;;;;;;;6210454;28;20293;-70
2023/05/27 06:41:27;;;;;;;9.45;1.23;;;;;;;;;;6211137;28;20359;-69
2023/05/27 06:44:53;;;;;;;1.00;1.00;;;;;;;;;;6205104;28;20305;-69
2023/05/27 06:48:02;;;;;;;1.05;1.05;;;;;;;;;;6211221;28;20475;-70
2023/05/27 06:51:08;;;;;;;1.00;1.00;;;;;;;;;;6209853;28;20293;-68
2023/05/27 06:54:15;;;;;;;2.05;1.00;;;;;;;;;;6210068;28;20300;-70
2023/05/27 06:57:22;;;;;;;1.45;0.90;;;;;;;;;;6210458;28;20312;-69
2023/05/27 07:00:33;;;;;;;1.92;0.80;;;;;;;;;;6209841;28;20472;-69
2023/05/27 07:03:53;;;;;;;3.03;0.90;;;;;;;;;;6209378;28;20546;-69
2023/05/27 07:07:14;;;;;;;0.80;0.80;;;;;;;;;;6210065;28;20324;-69
2023/05/27 07:10:21;;;;;;;0.90;0.90;;;;;;;;;;6209807;28;20288;-70
2023/05/27 07:13:26;;;;;;;4.30;0.82;;;;;;;;;;6208579;28;20297;-69
2023/05/27 07:16:32;;;;;;;0.77;0.77;;;;;;;;;;6210034;28;20269;-70
2023/05/27 07:19:38;;;;;;;5.22;1.00;;;;;;;;;;6208930;28;20381;-69
2023/05/27 07:22:48;;;;;;;9.73;1.00;;;;;;;;;;6209485;28;20297;-71
2023/05/27 07:25:55;;;;;;;0.90;0.90;;;;;;;;;;6209451;28;20300;-70
2023/05/27 07:29:03;;;;;;;2.58;1.15;;;;;;;;;;6209005;28;20297;-70
2023/05/27 07:32:43;;;;;;;1.88;1.10;;;;;;;;;;6210477;28;20293;-69
2023/05/27 07:35:50;;;;;;;7.30;1.15;;;;;;;;;;6210122;28;20290;-71
2023/05/27 07:38:55;;;;;;;17.98;1.25;;;;;;;;;;6210272;28;20614;-70
2023/05/27 07:42:02;;;;;;;2.75;0.90;;;;;;;;;;6209569;28;20611;-69
2023/05/27 07:45:09;;;;;;;6.30;1.30;;;;;;;;;;6209077;28;20300;-69
2023/05/27 07:48:16;;;;;;;2.88;0.70;;;;;;;;;;6208861;28;20484;-70
2023/05/27 07:51:21;;;;;;;2.85;0.98;;;;;;;;;;6211034;28;20487;-68
2023/05/27 07:54:27;;;;;;;3.03;0.93;;;;;;;;;;6209197;28;20324;-70
2023/05/27 07:57:34;;;;;;;0.90;0.90;;;;;;;;;;6210407;28;20588;-69
2023/05/27 08:00:39;;;;;;;2.17;1.10;;;;;;;;;;6210411;28;20568;-70
2023/05/27 08:03:44;;;;;;;3.35;0.90;;;;;;;;;;6208473;28;20557;-70
2023/05/27 08:07:16;;;;;;;1.15;1.02;;;;;;;;;;6210701;28;20309;-69
2023/05/27 08:10:27;;;;;;;1.58;1.30;;;;;;;;;;6200220;28;20306;-70
2023/05/27 08:14:00;;;;;;;0.95;0.95;;;;;;;;;;6184203;28;20294;-70
2023/05/27 08:17:44;;;;;;;1.75;0.98;;;;;;;;;;6159078;28;20295;-70
2023/05/27 08:20:57;;;;;;;3.65;1.40;;;;;;;;;;6143275;28;20322;-70
2023/05/27 08:24:30;;;;;;;5.80;1.00;;;;;;;;;;6183670;28;20293;-69
2023/05/27 08:28:02;;;;;;;4.35;1.00;;;;;;;;;;6184304;28;20286;-69
2023/05/27 08:31:29;;;;;;;5.07;1.20;;;;;;;;;;6184013;28;20282;-69
2023/05/27 08:34:37;;;;;;;6.38;1.27;;;;;;;;;;6183944;28;20302;-69
2023/05/27 08:37:42;;;;;;;2.75;1.00;;;;;;;;;;6184554;28;20271;-70
2023/05/27 08:40:49;;;;;;;4.22;1.20;;;;;;;;;;6184812;28;20342;-71
2023/05/27 08:43:56;;;;;;;4.88;1.23;;;;;;;;;;6185976;28;20341;-71
2023/05/27 08:47:24;;;;;;;6.53;1.10;;;;;;;;;;6189118;28;20313;-72
2023/05/27 08:50:29;;;;;;;7.57;1.23;;;;;;;;;;6188575;28;20305;-69
2023/05/27 08:53:35;;;;;;;6.10;1.20;;;;;;;;;;6188387;28;20291;-69
2023/05/27 08:56:41;;;;;;;5.90;1.20;;;;;;;;;;6190454;28;20294;-70
2023/05/27 08:59:50;;;;;;;6.68;1.33;;;;;;;;;;6197860;28;20300;-70
2023/05/27 09:02:59;;;;;;;4.80;1.38;;;;;;;;;;6212673;28;20309;-71
2023/05/27 09:06:14;;;;;;;4.65;1.30;;;;;;;;;;6211656;28;20301;-71
2023/05/27 09:09:20;;;;;;;5.82;1.30;;;;;;;;;;6213467;28;20297;-70
2023/05/27 09:12:26;;;;;;;1.83;1.08;;;;;;;;;;6214082;28;20285;-70
2023/05/27 09:15:32;;;;;;;3.70;1.20;;;;;;;;;;6213809;28;20288;-69
2023/05/27 09:18:39;;;;;;;2.40;1.45;;;;;;;;;;6213286;28;20297;-69
2023/05/27 09:21:44;;;;;;;1.30;1.10;;;;;;;;;;6213455;28;20430;-69
2023/05/27 09:24:50;;;;;;;5.03;1.00;;;;;;;;;;6213520;28;20296;-71
2023/05/27 09:27:55;;;;;;;3.92;0.90;;;;;;;;;;6213628;28;20298;-70
2023/05/27 09:31:02;;;;;;;4.25;1.10;;;;;;;;;;6212650;28;20305;-70
2023/05/27 09:34:13;;;;;;;1.85;1.30;;;;;;;;;;6213042;28;20373;-71
2023/05/27 09:37:20;;;;;;;0.93;0.90;;;;;;;;;;6213697;28;20486;-68
2023/05/27 09:40:27;;;;;;;8.00;1.40;;;;;;;;;;6212059;28;20312;-70
2023/05/27 09:43:33;;;;;;;1.15;1.10;;;;;;;;;;6213040;28;20293;-70
2023/05/27 09:46:38;;;;;;;3.63;1.40;;;;;;;;;;6211910;28;20269;-70
2023/05/27 09:49:44;;;;;;;2.10;1.10;;;;;;;;;;6212963;28;20313;-69
2023/05/27 09:52:56;;;;;;;1.00;1.00;;;;;;;;;;6213650;28;20293;-72
2023/05/27 09:56:16;;;;;;;1.23;1.10;;;;;;;;;;6212173;28;20317;-69
2023/05/27 09:59:21;;;;;;;1.20;1.10;;;;;;;;;;6212599;28;20312;-70
2023/05/27 10:02:27;;;;;;;1.33;1.25;;;;;;;;;;6212954;28;20610;-71
2023/05/27 10:05:35;;;;;;;8.40;1.30;;;;;;;;;;6212036;28;20297;-69
2023/05/27 10:08:40;;;;;;;2.45;1.30;;;;;;;;;;6212361;28;20285;-70
2023/05/27 10:11:46;;;;;;;2.30;1.20;;;;;;;;;;6211545;28;20292;-69
2023/05/27 10:14:52;;;;;;;3.58;1.30;;;;;;;;;;6212266;28;20289;-71
2023/05/27 10:17:58;;;;;;;2.25;1.30;;;;;;;;;;6213023;28;20297;-69
2023/05/27 10:21:07;;;;;;;1.10;1.10;;;;;;;;;;6212768;28;20492;-70
2023/05/27 10:24:13;;;;;;;1.15;1.15;;;;;;;;;;6211925;28;20292;-71
2023/05/27 10:27:18;;;;;;;1.90;0.98;;;;;;;;;;6212267;28;20301;-69
2023/05/27 10:30:24;;;;;;;3.65;1.10;;;;;;;;;;6211713;28;20340;-70
2023/05/27 10:33:31;;;;;;;4.13;1.10;;;;;;;;;;6211797;28;20289;-70
2023/05/27 10:36:37;;;;;;;1.13;1.13;;;;;;;;;;6212105;28;20289;-70
2023/05/27 10:39:42;;;;;;;10.00;2.35;;;;;;;;;;6211574;28;20381;-70
2023/05/27 10:42:47;;;;;;;1.10;1.10;;;;;;;;;;6211798;28;20500;-70
2023/05/27 10:46:04;;;;;;;2.88;1.02;;;;;;;;;;6211179;28;20313;-70
2023/05/27 10:49:15;;;;;;;2.15;1.20;;;;;;;;;;6209798;28;20296;-69
2023/05/27 10:52:26;;;;;;;1.73;1.20;;;;;;;;;;6211568;28;20301;-68
2023/05/27 10:55:33;;;;;;;2.40;1.30;;;;;;;;;;6210270;28;20296;-70
2023/05/27 10:58:39;;;;;;;12.75;1.70;;;;;;;;;;6209401;28;20448;-70
2023/05/27 11:01:45;;;;;;;2.28;1.20;;;;;;;;;;6211366;28;20294;-70
2023/05/27 11:04:51;;;;;;;1.00;1.00;;;;;;;;;;6210299;28;20313;-70
2023/05/27 11:08:00;;;;;;;2.78;1.17;;;;;;;;;;6210963;28;20308;-69
2023/05/27 11:11:08;;;;;;;1.40;1.30;;;;;;;;;;6209770;28;20305;-71
2023/05/27 11:14:14;;;;;;;3.47;1.35;;;;;;;;;;6211035;28;20561;-70
2023/05/27 11:17:20;;;;;;;5.40;1.10;;;;;;;;;;6211261;28;20304;-70
2023/05/27 11:20:34;;;;;;;1.20;1.10;;;;;;;;;;6210916;28;20450;-69
2023/05/27 11:23:43;;;;;;;2.25;1.38;;;;;;;;;;6210541;28;20293;-70
2023/05/27 11:26:50;;;;;;;7.22;1.30;;;;;;;;;;6211366;28;20293;-70
2023/05/27 11:29:56;;;;;;;2.53;1.35;;;;;;;;;;6210483;28;20301;-70
2023/05/27 11:33:04;;;;;;;6.28;1.48;;;;;;;;;;6210961;28;20292;-70
2023/05/27 11:36:14;;;;;;;10.00;1.50;;;;;;;;;;6209880;28;20571;-70
2023/05/27 11:39:21;;;;;;;5.88;1.52;;;;;;;;;;6210048;28;20615;-69
2023/05/27 11:42:26;;;;;;;9.10;1.80;;;;;;;;;;6209798;28;20301;-71
2023/05/27 11:45:35;;;;;;;1.48;1.27;;;;;;;;;;6210302;28;20301;-69
2023/05/27 11:48:41;;;;;;;3.92;1.20;;;;;;;;;;6210915;28;20297;-68
2023/05/27 11:51:47;;;;;;;6.68;1.60;;;;;;;;;;6211053;28;20292;-70
2023/05/27 11:54:53;;;;;;;1.20;1.20;;;;;;;;;;6210674;28;20385;-70
2023/05/27 11:58:02;;;;;;;2.15;1.23;;;;;;;;;;6211012;28;20288;-69
2023/05/27 12:01:07;;;;;;;1.63;1.20;;;;;;;;;;6209517;28;20562;-69
2023/05/27 12:04:13;;;;;;;1.70;1.20;;;;;;;;;;6209750;28;20317;-69
2023/05/27 12:07:18;;;;;;;2.20;1.30;;;;;;;;;;6210261;28;20588;-70
2023/05/27 12:10:27;;;;;;;10.25;1.85;;;;;;;;;;6209034;28;20305;-70
2023/05/27 12:13:32;;;;;;;5.75;1.33;;;;;;;;;;6210012;28;20288;-70
2023/05/27 12:16:37;;;;;;;1.38;1.27;;;;;;;;;;6210754;28;20273;-70
2023/05/27 12:19:43;;;;;;;1.65;1.52;;;;;;;;;;6210211;28;20297;-70
2023/05/27 12:22:48;;;;;;;2.03;1.42;;;;;;;;;;6215378;28;20292;-69
2023/05/27 12:25:55;;;;;;;3.53;1.70;;;;;;;;;;6214898;28;20325;-70
2023/05/27 12:29:00;;;;;;;6.45;1.40;;;;;;;;;;6214631;28;20340;-69
2023/05/27 12:32:05;;;;;;;5.00;1.30;;;;;;;;;;6213701;28;20298;-70
2023/05/27 12:35:11;;;;;;;3.60;1.33;;;;;;;;;;6214409;28;20292;-70
2023/05/27 12:38:16;;;;;;;3.03;1.15;;;;;;;;;;6214475;28;20296;-69
2023/05/27 12:41:23;;;;;;;7.60;1.40;;;;;;;;;;6213628;28;20301;-69
2023/05/27 12:44:28;;;;;;;1.40;1.30;;;;;;;;;;6214439;28;20304;-69
2023/05/27 12:47:33;;;;;;;3.00;1.20;;;;;;;;;;6214523;28;20435;-69
2023/05/27 12:50:39;;;;;;;4.03;1.00;;;;;;;;;;6212829;28;20345;-70
2023/05/27 12:53:44;;;;;;;5.65;1.50;;;;;;;;;;6212571;28;20292;-70
2023/05/27 12:56:51;;;;;;;3.80;1.20;;;;;;;;;;6213954;28;20293;-69
2023/05/27 12:59:57;;;;;;;4.10;1.70;;;;;;;;;;6213461;28;20324;-70
2023/05/27 13:03:02;;;;;;;1.55;1.40;;;;;;;;;;6213887;28;20340;-69
2023/05/27 13:06:07;;;;;;;1.75;1.50;;;;;;;;;;6212857;28;20551;-70
2023/05/27 13:09:13;;;;;;;1.98;1.63;;;;;;;;;;6213639;28;20309;-70
2023/05/27 13:12:20;;;;;;;3.72;1.40;;;;;;;;;;6213670;28;20374;-69
2023/05/27 13:15:25;;;;;;;2.72;1.75;;;;;;;;;;6213630;28;20301;-70
2023/05/27 13:18:30;;;;;;;3.42;1.30;;;;;;;;;;6213996;28;20297;-68
2023/05/27 13:21:36;;;;;;;5.18;1.33;;;;;;;;;;6214416;28;20302;-69
2023/05/27 13:24:41;;;;;;;1.40;1.27;;;;;;;;;;6213265;28;20301;-69
2023/05/27 13:27:48;;;;;;;1.95;1.42;;;;;;;;;;6214124;28;20301;-69
2023/05/27 13:30:53;;;;;;;3.22;1.30;;;;;;;;;;6211312;28;20297;-70
2023/05/27 13:33:58;;;;;;;9.00;2.90;;;;;;;;;;6213865;28;20113;-70
2023/05/27 13:37:04;;;;;;;2.25;1.42;;;;;;;;;;6214250;28;20266;-71
2023/05/27 13:40:12;;;;;;;2.38;1.83;;;;;;;;;;6213505;28;20293;-70
2023/05/27 13:43:19;;;;;;;5.18;1.60;;;;;;;;;;6213297;28;20317;-69
2023/05/27 13:46:24;;;;;;;1.35;1.35;;;;;;;;;;6213112;28;20293;-69
2023/05/27 13:49:29;;;;;;;4.28;1.42;;;;;;;;;;6212212;28;20297;-70
2023/05/27 13:52:35;;;;;;;4.35;1.58;;;;;;;;;;6212305;28;20288;-70
2023/05/27 13:55:42;;;;;;;1.60;1.50;;;;;;;;;;6212769;28;20297;-69
2023/05/27 13:58:49;;;;;;;11.32;2.00;;;;;;;;;;6212857;28;20454;-70
2023/05/27 14:01:54;;;;;;;3.33;1.38;;;;;;;;;;6212083;28;20308;-69
2023/05/27 14:05:00;;;;;;;4.25;1.40;;;;;;;;;;6212181;28;20460;-70
2023/05/27 14:08:05;;;;;;;2.58;1.50;;;;;;;;;;6212184;28;20300;-71
2023/05/27 14:11:12;;;;;;;3.42;1.70;;;;;;;;;;6212226;28;20340;-70
2023/05/27 14:14:19;;;;;;;1.27;1.25;;;;;;;;;;6212058;28;20293;-70
2023/05/27 14:17:24;;;;;;;1.88;1.85;;;;;;;;;;6213045;28;20305;-70
2023/05/27 14:20:29;;;;;;;1.42;1.42;;;;;;;;;;6212302;28;20289;-70
2023/05/27 14:23:35;;;;;;;1.65;1.40;;;;;;;;;;6212341;28;20300;-69
2023/05/27 14:26:40;;;;;;;1.70;1.42;;;;;;;;;;6213109;28;20296;-70
2023/05/27 14:29:47;;;;;;;7.97;1.60;;;;;;;;;;6211530;28;20293;-71
2023/05/27 14:32:52;;;;;;;7.72;1.90;;;;;;;;;;6212167;28;20288;-70
2023/05/27 14:35:58;;;;;;;4.75;1.50;;;;;;;;;;6211549;28;20292;-69
2023/05/27 14:39:05;;;;;;;2.58;1.67;;;;;;;;;;6210988;28;20384;-71
2023/05/27 14:42:11;;;;;;;2.35;1.20;;;;;;;;;;6211339;28;20309;-71
2023/05/27 14:45:20;;;;;;;3.42;1.45;;;;;;;;;;6211297;28;20293;-70
2023/05/27 14:48:26;;;;;;;7.20;1.50;;;;;;;;;;6211415;28;20485;-70
2023/05/27 14:51:32;;;;;;;1.55;1.48;;;;;;;;;;6211498;28;20309;-69
2023/05/27 14:54:37;;;;;;;4.80;1.42;;;;;;;;;;6209571;28;20305;-69
2023/05/27 14:57:42;;;;;;;1.90;1.50;;;;;;;;;;6211787;28;20289;-70
2023/05/27 15:00:49;;;;;;;1.50;1.45;;;;;;;;;;6210317;28;20600;-69
2023/05/27 15:03:54;;;;;;;6.45;1.52;;;;;;;;;;6211021;28;20508;-70
2023/05/27 15:07:00;;;;;;;3.38;1.40;;;;;;;;;;6211368;28;20297;-70
2023/05/27 15:10:06;;;;;;;4.75;1.20;;;;;;;;;;6210311;28;20308;-69
2023/05/27 15:13:12;;;;;;;6.22;1.83;;;;;;;;;;6211084;28;20352;-69
2023/05/27 15:16:18;;;;;;;5.10;1.60;;;;;;;;;;6211859;28;20301;-72
2023/05/27 15:19:24;;;;;;;8.35;1.50;;;;;;;;;;6211190;28;20296;-70
2023/05/27 15:22:30;;;;;;;4.13;1.33;;;;;;;;;;6210717;28;20585;-69
2023/05/27 15:25:35;;;;;;;8.77;1.25;;;;;;;;;;6210831;28;20293;-70
2023/05/27 15:28:40;;;;;;;6.78;1.63;;;;;;;;;;6210843;28;20574;-70
2023/05/27 15:31:47;;;;;;;5.85;1.42;;;;;;;;;;6211092;28;20403;-69
2023/05/27 15:34:52;;;;;;;5.03;1.40;;;;;;;;;;6210134;28;20289;-70
2023/05/27 15:37:57;;;;;;;7.30;1.80;;;;;;;;;;6211070;28;20536;-70
2023/05/27 15:41:02;;;;;;;6.22;1.50;;;;;;;;;;6210605;28;20581;-70
2023/05/27 15:44:07;;;;;;;4.25;1.50;;;;;;;;;;6210652;28;20309;-70
2023/05/27 15:47:15;;;;;;;3.50;2.10;;;;;;;;;;6211082;28;20454;-71
2023/05/27 15:50:21;;;;;;;8.38;2.22;;;;;;;;;;6209363;28;20304;-72
2023/05/27 15:53:26;;;;;;;15.10;1.90;;;;;;;;;;6210276;28;20467;-70
2023/05/27 15:56:32;;;;;;;4.88;2.80;;;;;;;;;;6211143;28;20301;-70
2023/05/27 15:59:37;;;;;;;5.10;2.28;;;;;;;;;;6210429;28;20296;-69
2023/05/27 16:02:44;;;;;;;7.35;1.75;;;;;;;;;;6210599;28;20301;-71
2023/05/27 16:05:49;;;;;;;3.55;1.40;;;;;;;;;;6210195;28;20297;-71
2023/05/27 16:08:55;;;;;;;4.50;1.33;;;;;;;;;;6210190;28;20297;-70
2023/05/27 16:12:02;;;;;;;6.50;1.42;;;;;;;;;;6210667;28;20300;-71
2023/05/27 16:15:08;;;;;;;4.47;1.55;;;;;;;;;;6209935;28;20300;-70
2023/05/27 16:18:18;;;;;;;13.55;1.63;;;;;;;;;;6209878;28;20293;-70
2023/05/27 16:21:24;;;;;;;8.60;1.75;;;;;;;;;;6210337;28;20296;-71
2023/05/27 16:24:30;;;;;;;5.00;2.00;;;;;;;;;;6209697;28;20305;-72
2023/05/27 16:27:36;;;;;;;6.75;2.42;;;;;;;;;;6210792;28;20289;-69
2023/05/27 16:30:41;;;;;;;4.70;1.80;;;;;;;;;;6210313;28;20312;-70
2023/05/27 16:33:48;;;;;;;7.30;1.35;;;;;;;;;;6210403;28;20293;-70
2023/05/27 16:36:53;;;;;;;6.57;1.60;;;;;;;;;;6210715;28;20292;-69
2023/05/27 16:39:58;;;;;;;4.00;1.60;;;;;;;;;;6209854;28;20300;-69
2023/05/27 16:43:03;;;;;;;9.75;1.67;;;;;;;;;;6210467;28;20291;-71
2023/05/27 16:46:08;;;;;;;6.60;1.63;;;;;;;;;;6208462;28;20471;-70
2023/05/27 16:49:15;;;;;;;7.72;2.08;;;;;;;;;;6211052;28;20305;-70
2023/05/27 16:52:21;;;;;;;7.50;2.70;;;;;;;;;;6211491;28;20573;-71
2023/05/27 16:55:26;;;;;;;4.95;2.00;;;;;;;;;;6209355;28;20301;-70
2023/05/27 16:58:31;;;;;;;3.08;1.70;;;;;;;;;;6209679;28;20292;-70
2023/05/27 17:01:36;;;;;;;3.63;1.45;;;;;;;;;;6210209;28;20274;-70
2023/05/27 17:04:44;;;;;;;7.75;1.85;;;;;;;;;;6209384;28;20296;-71
2023/05/27 17:07:49;;;;;;;3.10;1.75;;;;;;;;;;6213802;28;20293;-70
2023/05/27 17:10:55;;;;;;;5.40;1.60;;;;;;;;;;6214489;28;20357;-70
2023/05/27 17:14:00;;;;;;;12.27;2.05;;;;;;;;;;6214262;28;20514;-71
2023/05/27 17:17:06;;;;;;;22.40;2.03;;;;;;;;;;6214375;28;20597;-70
2023/05/27 17:20:18;;;;;;;8.13;2.00;;;;;;;;;;6214114;28;20293;-71
2023/05/27 17:23:24;;;;;;;6.15;1.52;;;;;;;;;;6214155;28;20293;-70
2023/05/27 17:26:29;;;;;;;5.75;1.70;;;;;;;;;;6214758;28;20566;-70
2023/05/27 17:29:35;;;;;;;12.15;2.00;;;;;;;;;;6213958;28;20306;-70
2023/05/27 17:32:40;;;;;;;5.13;2.17;;;;;;;;;;6213750;28;20294;-69
2023/05/27 17:35:46;;;;;;;1.88;1.60;;;;;;;;;;6214031;28;20305;-68
2023/05/27 17:38:51;;;;;;;2.10;2.00;;;;;;;;;;6212374;28;20292;-70
2023/05/27 17:41:57;;;;;;;6.60;1.75;;;;;;;;;;6213621;28;20296;-70
2023/05/27 17:45:02;;;;;;;4.30;1.75;;;;;;;;;;6213698;28;20297;-70
2023/05/27 17:48:10;;;;;;;8.57;2.15;;;;;;;;;;6213322;28;20429;-71
2023/05/27 17:51:17;;;;;;;2.10;1.70;;;;;;;;;;6212680;28;20289;-70
2023/05/27 17:54:22;;;;;;;3.33;2.15;;;;;;;;;;6213146;28;20304;-70
2023/05/27 17:57:28;;;;;;;1.85;1.77;;;;;;;;;;6213679;28;20317;-70
2023/05/27 18:00:33;;;;;;;7.75;5.18;;;;;;;;;;6213011;28;20293;-70
2023/05/27 18:03:38;;;;;;;4.55;2.47;;;;;;;;;;6212853;28;20297;-70
2023/05/27 18:06:45;;;;;;;2.15;1.50;;;;;;;;;;6213401;28;20473;-69
2023/05/27 18:09:50;;;;;;;1.92;1.77;;;;;;;;;;6211333;28;20309;-69
2023/05/27 18:12:56;;;;;;;6.35;2.10;;;;;;;;;;6211751;28;20294;-70
2023/05/27 18:16:01;;;;;;;2.13;1.88;;;;;;;;;;6213009;28;20586;-71
2023/05/27 18:19:07;;;;;;;5.57;1.58;;;;;;;;;;6212154;28;20304;-69
2023/05/27 18:22:14;;;;;;;2.00;1.83;;;;;;;;;;6213572;28;20292;-70
2023/05/27 18:25:19;;;;;;;2.88;1.73;;;;;;;;;;6212364;28;20380;-70
2023/05/27 18:28:24;;;;;;;4.00;2.10;;;;;;;;;;6215552;28;20292;-70
2023/05/27 18:31:30;;;;;;;2.55;1.70;;;;;;;;;;6212076;28;20273;-70
2023/05/27 18:34:35;;;;;;;3.75;2.30;;;;;;;;;;6212385;28;20305;-71
2023/05/27 18:37:42;;;;;;;1.60;1.60;;;;;;;;;;6212588;28;20449;-70
2023/05/27 18:40:47;;;;;;;1.67;1.67;;;;;;;;;;6212044;28;20308;-70
2023/05/27 18:43:57;;;;;;;2.10;1.83;;;;;;;;;;6212076;28;20297;-70